N97 weather

Public forecast

Using degrees Fahrenheit for public forecast. Weather courtesy of forecast.io.

Closest aviation weather report (METAR) to Hiatt Airport

Closest report is Davidson County Airport, 10.0 nm (18.5 km) WSW. Retrieved 2020/08/12 12:35 UTC (22 minutes ago):

KEXX 121235Z AUTO 07003KT 10SM CLR 24/24 A3006 RMK AO2 T02410241

Closest aviation forecast (TAF) to Hiatt Airport

Closest forecast is Piedmont Triad International Airport, 18.1 nm (33.5 km) NNE. Retrieved 2020/08/12 12:42 UTC (15 minutes ago):

TAF KGSO 121139Z 1212/1312 14003KT P6SM FEW100 SCT250 TEMPO 1212/1213 VRB02KT 3SM BR FEW005 FM121300 VRB03KT P6SM FEW100 SCT250 FM121700 15005KT P6SM VCSH SCT040 BKN250 TEMPO 1302/1306 VRB10G20KT 2SM -TSRA BKN030 BKN045CB OVC110 FM131100 VRB02KT 3SM BR SCT003 SCT110